Decatur Airport
KDEC : now visible

Airfield :











YOU CAN JOIN US ON...

 
LOGIN :

Register | Disclaimer

   EN    FR    IT 

 









Legend :    VFR   Marginal VFR   IFR   Intensive IFR   Very Intensive IFR
Visi :
Ceiling :
>= 8 km
>= 3000ft
5 to 8 km
1000 to 3000 ft
1500m to 5 km
500 to 1000 ft
800 to 1500m
200 to 500 ft
< 800m
< 200 ft
Symbols :   Thunderstorms  Fog  Heavy snow  Heavy precipitations  Wind > 20 kt






- Airport Elevation : 682 ft
- IATA code : DEC


KDEC - Decatur

CURRENT METAR :
  • 061754Z 15016KT 10SM CLR 09/01 A3014 RMK AO2 PRESFR SLP210 T00890011 10089 21061 58027

EXPIRED METARs :
  • 061654Z 13014KT 10SM CLR 06/01 A3019 RMK AO2 SLP227 T00610006
  • 061554Z 14012KT 8SM CLR 04/01 A3022 RMK AO2 SLP237 T00390006

TAF KDEC
Valid from the 06 at 18:00 until the 07 at 18:00 UTC


061722Z 0618/0718 15013G21KT P6SM BKN240
FM070200 17019G30KT P6SM OVC180 WS020/19050KT
FM070500 18019G34KT P6SM OVC030 WS020/21050KT
FM070800 20018G32KT P6SM VCSH OVC015 WS020/22045KT
FM071100 24013G23KT P6SM BKN013
FM071200 25012G21KT P6SM BKN040
FM071400 27012G23KT P6SM BKN026
FM071700 29013KT P6SM OVC017
KZKC FIR / North America



MET'MAP, your aeronautical weather chart ! - Copyright ORBIFLY December 2007 - Disclaimer

ORBIFLY MET'MAP TEAM :

Programming & Development : Alexandra Zaïnal
Original concept : Baudouin d'Aumeries
Technical & hardware support : Manuel Goepfert
Assistance : Marc-Olivier Méhu




SOURCES & CREDITS :

   NOAA       Earth
Advisory